Cazorla, Spain
Current Conditions -  °F | °C
As of 8:30 PM on Saturday 20 Dec 2014 (Local Time) from LEGR Reporting Station
Clear Clear  
Wind Chill:   Ceiling: Unl
Heat Index:   Visibility: 6mi
Dew Point:   Wind: 1mph
Humidity: 93%   Direction: NA
Pressure: 30.42"   Gusts: NA
Location:  37.91°N, 3°W
Report Text: LEGR 201930Z VRB01KT 9000 NSC 05/04 Q1030
Loading
Personal Weather Stations






























Interactive Weather Map New forecast layout! Learn more

10-Day Weather Forecast

Advertisements
Track Severe Weather on mobile